sensor_id;sensor_type;location;lat;lon;timestamp;pressure;altitude;pressure_sealevel;temperature;humidity
41040;BME280;48586;50.122;18.972;2023-03-18T00:00:06;98736.91;;;4.70;38.55
41040;BME280;48586;50.122;18.972;2023-03-18T00:02:13;98741.72;;;4.66;38.63
41040;BME280;48586;50.122;18.972;2023-03-18T00:04:19;98735.63;;;4.66;38.77
41040;BME280;48586;50.122;18.972;2023-03-18T00:06:27;98743.75;;;4.64;38.59
41040;BME280;48586;50.122;18.972;2023-03-18T00:08:33;98732.94;;;4.59;38.67
41040;BME280;48586;50.122;18.972;2023-03-18T00:10:40;98739.22;;;4.58;38.88
41040;BME280;48586;50.122;18.972;2023-03-18T00:12:46;98741.22;;;4.56;38.87
41040;BME280;48586;50.122;18.972;2023-03-18T00:14:51;98736.31;;;4.53;38.76
41040;BME280;48586;50.122;18.972;2023-03-18T00:16:56;98735.06;;;4.49;39.08
41040;BME280;48586;50.122;18.972;2023-03-18T00:19:01;98731.00;;;4.46;39.11
41040;BME280;48586;50.122;18.972;2023-03-18T00:21:07;98725.25;;;4.43;39.32
41040;BME280;48586;50.122;18.972;2023-03-18T00:23:16;98734.19;;;4.42;39.22
41040;BME280;48586;50.122;18.972;2023-03-18T00:25:23;98735.56;;;4.38;39.36
41040;BME280;48586;50.122;18.972;2023-03-18T00:27:29;98734.09;;;4.35;39.63
41040;BME280;48586;50.122;18.972;2023-03-18T00:29:36;98733.66;;;4.32;39.54
41040;BME280;48586;50.122;18.972;2023-03-18T00:31:44;98727.13;;;4.28;39.77
41040;BME280;48586;50.122;18.972;2023-03-18T00:33:51;98718.13;;;4.22;40.00
41040;BME280;48586;50.122;18.972;2023-03-18T00:35:56;98711.44;;;4.19;40.07
41040;BME280;48586;50.122;18.972;2023-03-18T00:38:02;98717.88;;;4.17;40.37
41040;BME280;48586;50.122;18.972;2023-03-18T00:40:13;98712.81;;;4.15;40.37
41040;BME280;48586;50.122;18.972;2023-03-18T00:42:22;98706.88;;;4.13;40.24
41040;BME280;48586;50.122;18.972;2023-03-18T00:44:26;98705.41;;;4.11;40.38
41040;BME280;48586;50.122;18.972;2023-03-18T00:46:35;98699.72;;;4.07;40.58
41040;BME280;48586;50.122;18.972;2023-03-18T00:48:42;98693.44;;;4.08;40.83
41040;BME280;48586;50.122;18.972;2023-03-18T00:50:47;98691.00;;;4.07;40.42
41040;BME280;48586;50.122;18.972;2023-03-18T00:52:52;98695.44;;;4.06;40.71
41040;BME280;48586;50.122;18.972;2023-03-18T00:54:58;98699.91;;;4.06;40.34
41040;BME280;48586;50.122;18.972;2023-03-18T00:57:06;98691.16;;;4.05;40.59
41040;BME280;48586;50.122;18.972;2023-03-18T00:59:11;98694.63;;;4.06;40.52
41040;BME280;48586;50.122;18.972;2023-03-18T01:01:19;98698.06;;;4.06;40.65
41040;BME280;48586;50.122;18.972;2023-03-18T01:03:25;98692.78;;;4.06;40.68
41040;BME280;48586;50.122;18.972;2023-03-18T01:05:30;98692.78;;;4.06;40.88
41040;BME280;48586;50.122;18.972;2023-03-18T01:07:39;98686.72;;;4.06;40.86
41040;BME280;48586;50.122;18.972;2023-03-18T01:09:44;98683.25;;;4.05;40.73
41040;BME280;48586;50.122;18.972;2023-03-18T01:11:49;98679.00;;;4.04;40.98
41040;BME280;48586;50.122;18.972;2023-03-18T01:13:56;98667.81;;;4.02;40.93
41040;BME280;48586;50.122;18.972;2023-03-18T01:16:02;98660.91;;;4.01;41.21
41040;BME280;48586;50.122;18.972;2023-03-18T01:18:07;98674.09;;;4.01;41.03
41040;BME280;48586;50.122;18.972;2023-03-18T01:20:15;98664.75;;;3.98;41.05
41040;BME280;48586;50.122;18.972;2023-03-18T01:22:25;98671.19;;;3.96;40.99
41040;BME280;48586;50.122;18.972;2023-03-18T01:24:29;98661.03;;;3.93;41.18
41040;BME280;48586;50.122;18.972;2023-03-18T01:26:34;98669.13;;;3.91;41.22
41040;BME280;48586;50.122;18.972;2023-03-18T01:28:39;98664.22;;;3.88;41.51
41040;BME280;48586;50.122;18.972;2023-03-18T01:30:46;98662.13;;;3.84;41.63
41040;BME280;48586;50.122;18.972;2023-03-18T01:32:55;98659.88;;;3.81;41.90
41040;BME280;48586;50.122;18.972;2023-03-18T01:35:02;98659.59;;;3.76;41.80
41040;BME280;48586;50.122;18.972;2023-03-18T01:37:07;98663.59;;;3.71;41.92
41040;BME280;48586;50.122;18.972;2023-03-18T01:39:15;98674.69;;;3.67;42.22
41040;BME280;48586;50.122;18.972;2023-03-18T01:41:20;98669.63;;;3.65;42.26
41040;BME280;48586;50.122;18.972;2023-03-18T01:43:27;98672.59;;;3.62;42.13
41040;BME280;48586;50.122;18.972;2023-03-18T01:45:35;98664.91;;;3.61;42.53
41040;BME280;48586;50.122;18.972;2023-03-18T01:47:42;98658.38;;;3.57;42.56
41040;BME280;48586;50.122;18.972;2023-03-18T01:49:49;98662.34;;;3.53;42.49
41040;BME280;48586;50.122;18.972;2023-03-18T01:51:59;98654.66;;;3.51;42.60
41040;BME280;48586;50.122;18.972;2023-03-18T01:54:08;98650.75;;;3.47;42.83
41040;BME280;48586;50.122;18.972;2023-03-18T01:56:14;98650.47;;;3.42;43.00
41040;BME280;48586;50.122;18.972;2023-03-18T01:58:24;98643.94;;;3.38;43.02
41040;BME280;48586;50.122;18.972;2023-03-18T02:00:34;98652.00;;;3.36;43.14
41040;BME280;48586;50.122;18.972;2023-03-18T02:02:48;98651.38;;;3.34;43.11
41040;BME280;48586;50.122;18.972;2023-03-18T02:05:03;98646.66;;;3.30;42.97
41040;BME280;48586;50.122;18.972;2023-03-18T02:07:15;98643.38;;;3.28;43.08
41040;BME280;48586;50.122;18.972;2023-03-18T02:09:20;98651.81;;;3.23;43.15
41040;BME280;48586;50.122;18.972;2023-03-18T02:11:25;98650.75;;;3.17;43.43
41040;BME280;48586;50.122;18.972;2023-03-18T02:13:34;98658.84;;;3.16;43.44
41040;BME280;48586;50.122;18.972;2023-03-18T02:15:46;98660.19;;;3.12;43.33
41040;BME280;48586;50.122;18.972;2023-03-18T02:18:02;98652.16;;;3.05;43.63
41040;BME280;48586;50.122;18.972;2023-03-18T02:20:26;98654.50;;;3.00;43.60
41040;BME280;48586;50.122;18.972;2023-03-18T02:22:42;98651.59;;;2.95;43.80
41040;BME280;48586;50.122;18.972;2023-03-18T02:25:09;98651.13;;;2.91;43.95
41040;BME280;48586;50.122;18.972;2023-03-18T02:27:26;98650.66;;;2.88;44.16
41040;BME280;48586;50.122;18.972;2023-03-18T02:29:35;98646.94;;;2.82;44.16
41040;BME280;48586;50.122;18.972;2023-03-18T02:31:47;98646.50;;;2.79;44.34
41040;BME280;48586;50.122;18.972;2023-03-18T02:33:58;98649.66;;;2.74;44.53
41040;BME280;48586;50.122;18.972;2023-03-18T02:36:10;98645.56;;;2.71;44.65
41040;BME280;48586;50.122;18.972;2023-03-18T02:38:17;98647.09;;;2.66;44.91
41040;BME280;48586;50.122;18.972;2023-03-18T02:40:26;98650.06;;;2.63;45.09
41040;BME280;48586;50.122;18.972;2023-03-18T02:42:35;98649.78;;;2.58;45.29
41040;BME280;48586;50.122;18.972;2023-03-18T02:44:45;98651.13;;;2.54;45.30
41040;BME280;48586;50.122;18.972;2023-03-18T02:47:15;98650.66;;;2.50;45.44
41040;BME280;48586;50.122;18.972;2023-03-18T02:49:25;98644.13;;;2.46;45.45
41040;BME280;48586;50.122;18.972;2023-03-18T02:51:31;98646.94;;;2.44;45.69
41040;BME280;48586;50.122;18.972;2023-03-18T02:53:37;98648.28;;;2.40;45.78
41040;BME280;48586;50.122;18.972;2023-03-18T02:55:42;98649.44;;;2.38;45.66
41040;BME280;48586;50.122;18.972;2023-03-18T02:57:49;98651.63;;;2.34;46.09
41040;BME280;48586;50.122;18.972;2023-03-18T02:59:54;98654.59;;;2.31;45.81
41040;BME280;48586;50.122;18.972;2023-03-18T03:01:59;98650.69;;;2.27;45.99
41040;BME280;48586;50.122;18.972;2023-03-18T03:04:04;98651.50;;;2.28;45.86
41040;BME280;48586;50.122;18.972;2023-03-18T03:06:11;98650.19;;;2.23;45.91
41040;BME280;48586;50.122;18.972;2023-03-18T03:08:15;98653.66;;;2.24;46.07
41040;BME280;48586;50.122;18.972;2023-03-18T03:10:21;98656.47;;;2.22;46.26
41040;BME280;48586;50.122;18.972;2023-03-18T03:12:27;98655.66;;;2.22;46.46
41040;BME280;48586;50.122;18.972;2023-03-18T03:14:34;98660.25;;;2.20;46.27
41040;BME280;48586;50.122;18.972;2023-03-18T03:16:39;98652.53;;;2.18;46.39
41040;BME280;48586;50.122;18.972;2023-03-18T03:18:44;98659.94;;;2.15;46.30
41040;BME280;48586;50.122;18.972;2023-03-18T03:20:49;98652.06;;;2.15;46.48
41040;BME280;48586;50.122;18.972;2023-03-18T03:22:54;98657.31;;;2.15;46.60
41040;BME280;48586;50.122;18.972;2023-03-18T03:24:59;98661.59;;;2.16;46.73
41040;BME280;48586;50.122;18.972;2023-03-18T03:27:03;98660.13;;;2.13;46.74
41040;BME280;48586;50.122;18.972;2023-03-18T03:29:08;98657.66;;;2.12;46.78
41040;BME280;48586;50.122;18.972;2023-03-18T03:31:16;98661.28;;;2.11;46.56
41040;BME280;48586;50.122;18.972;2023-03-18T03:33:20;98661.47;;;2.09;46.90
41040;BME280;48586;50.122;18.972;2023-03-18T03:35:25;98654.59;;;2.08;46.84
41040;BME280;48586;50.122;18.972;2023-03-18T03:37:30;98658.38;;;2.06;46.45
41040;BME280;48586;50.122;18.972;2023-03-18T03:39:34;98656.91;;;2.03;46.68
41040;BME280;48586;50.122;18.972;2023-03-18T03:41:39;98652.63;;;2.02;46.83
41040;BME280;48586;50.122;18.972;2023-03-18T03:43:44;98657.25;;;2.00;46.77
41040;BME280;48586;50.122;18.972;2023-03-18T03:45:48;98656.78;;;1.96;46.71
41040;BME280;48586;50.122;18.972;2023-03-18T03:47:55;98656.13;;;1.94;46.83
41040;BME280;48586;50.122;18.972;2023-03-18T03:50:01;98654.34;;;1.95;46.99
41040;BME280;48586;50.122;18.972;2023-03-18T03:52:06;98663.84;;;1.96;46.93
41040;BME280;48586;50.122;18.972;2023-03-18T03:54:13;98658.75;;;1.94;46.96
41040;BME280;48586;50.122;18.972;2023-03-18T03:56:18;98656.97;;;1.95;47.06
41040;BME280;48586;50.122;18.972;2023-03-18T03:58:22;98663.19;;;1.94;47.03
41040;BME280;48586;50.122;18.972;2023-03-18T04:00:28;98664.00;;;1.94;46.86
41040;BME280;48586;50.122;18.972;2023-03-18T04:02:33;98669.09;;;1.96;47.23
41040;BME280;48586;50.122;18.972;2023-03-18T04:04:40;98664.47;;;1.98;47.13
41040;BME280;48586;50.122;18.972;2023-03-18T04:06:52;98669.41;;;2.01;46.75
41040;BME280;48586;50.122;18.972;2023-03-18T04:08:58;98664.16;;;2.01;46.81
41040;BME280;48586;50.122;18.972;2023-03-18T04:11:03;98658.22;;;1.99;46.75
41040;BME280;48586;50.122;18.972;2023-03-18T04:13:08;98669.09;;;1.96;47.03
41040;BME280;48586;50.122;18.972;2023-03-18T04:15:16;98666.00;;;1.92;46.99
41040;BME280;48586;50.122;18.972;2023-03-18T04:17:24;98670.78;;;1.89;47.21
41040;BME280;48586;50.122;18.972;2023-03-18T04:19:28;98671.28;;;1.84;46.97
41040;BME280;48586;50.122;18.972;2023-03-18T04:21:37;98669.81;;;1.82;47.24
41040;BME280;48586;50.122;18.972;2023-03-18T04:23:41;98676.06;;;1.81;47.43
41040;BME280;48586;50.122;18.972;2023-03-18T04:25:45;98674.44;;;1.80;47.46
41040;BME280;48586;50.122;18.972;2023-03-18T04:27:51;98674.63;;;1.78;47.57
41040;BME280;48586;50.122;18.972;2023-03-18T04:29:55;98674.78;;;1.77;47.63
41040;BME280;48586;50.122;18.972;2023-03-18T04:32:10;98670.84;;;1.72;47.66
41040;BME280;48586;50.122;18.972;2023-03-18T04:34:15;98680.53;;;1.72;47.84
41040;BME280;48586;50.122;18.972;2023-03-18T04:36:20;98671.53;;;1.66;47.83
41040;BME280;48586;50.122;18.972;2023-03-18T04:38:27;98671.06;;;1.63;47.96
41040;BME280;48586;50.122;18.972;2023-03-18T04:40:31;98666.00;;;1.61;48.02
41040;BME280;48586;50.122;18.972;2023-03-18T04:42:36;98660.06;;;1.59;48.00
41040;BME280;48586;50.122;18.972;2023-03-18T04:44:41;98668.31;;;1.56;47.98
41040;BME280;48586;50.122;18.972;2023-03-18T04:46:47;98665.22;;;1.53;48.01
41040;BME280;48586;50.122;18.972;2023-03-18T04:48:52;98669.63;;;1.52;48.01
41040;BME280;48586;50.122;18.972;2023-03-18T04:50:56;98670.44;;;1.53;48.26
41040;BME280;48586;50.122;18.972;2023-03-18T04:53:04;98664.38;;;1.52;48.19
41040;BME280;48586;50.122;18.972;2023-03-18T04:55:12;98667.00;;;1.52;48.18
41040;BME280;48586;50.122;18.972;2023-03-18T04:57:20;98671.41;;;1.52;48.23
41040;BME280;48586;50.122;18.972;2023-03-18T04:59:29;98673.91;;;1.53;48.04
41040;BME280;48586;50.122;18.972;2023-03-18T05:01:37;98666.03;;;1.53;47.98
41040;BME280;48586;50.122;18.972;2023-03-18T05:03:41;98670.09;;;1.56;48.23
41040;BME280;48586;50.122;18.972;2023-03-18T05:05:49;98673.88;;;1.61;47.90
41040;BME280;48586;50.122;18.972;2023-03-18T05:07:58;98671.06;;;1.63;48.25
41040;BME280;48586;50.122;18.972;2023-03-18T05:10:03;98676.78;;;1.66;47.91
41040;BME280;48586;50.122;18.972;2023-03-18T05:12:14;98677.28;;;1.70;48.06
41040;BME280;48586;50.122;18.972;2023-03-18T05:14:19;98678.91;;;1.71;47.99
41040;BME280;48586;50.122;18.972;2023-03-18T05:16:23;98680.03;;;1.77;47.65
41040;BME280;48586;50.122;18.972;2023-03-18T05:18:28;98675.44;;;1.79;47.93
41040;BME280;48586;50.122;18.972;2023-03-18T05:20:35;98676.06;;;1.81;47.85
41040;BME280;48586;50.122;18.972;2023-03-18T05:22:40;98681.63;;;1.86;47.51
41040;BME280;48586;50.122;18.972;2023-03-18T05:24:52;98679.66;;;1.88;47.55
41040;BME280;48586;50.122;18.972;2023-03-18T05:26:58;98686.19;;;1.92;47.33
41040;BME280;48586;50.122;18.972;2023-03-18T05:29:11;98690.28;;;1.94;47.31
41040;BME280;48586;50.122;18.972;2023-03-18T05:31:29;98690.13;;;1.96;47.31
41040;BME280;48586;50.122;18.972;2023-03-18T05:33:34;98690.41;;;2.01;47.08
41040;BME280;48586;50.122;18.972;2023-03-18T05:35:39;98680.38;;;2.05;47.20
41040;BME280;48586;50.122;18.972;2023-03-18T05:37:44;98689.38;;;2.10;47.14
41040;BME280;48586;50.122;18.972;2023-03-18T05:39:49;98686.91;;;2.17;47.13
41040;BME280;48586;50.122;18.972;2023-03-18T05:41:54;98693.25;;;2.22;46.94
41040;BME280;48586;50.122;18.972;2023-03-18T05:44:02;98687.94;;;2.31;46.82
41040;BME280;48586;50.122;18.972;2023-03-18T05:46:13;98688.72;;;2.39;46.66
41040;BME280;48586;50.122;18.972;2023-03-18T05:48:38;98680.78;;;2.47;46.45
41040;BME280;48586;50.122;18.972;2023-03-18T05:50:44;98690.22;;;2.57;46.29
41040;BME280;48586;50.122;18.972;2023-03-18T05:52:53;98697.25;;;2.64;46.07
41040;BME280;48586;50.122;18.972;2023-03-18T05:54:58;98701.59;;;2.72;46.06
41040;BME280;48586;50.122;18.972;2023-03-18T05:57:08;98694.47;;;2.81;45.59
41040;BME280;48586;50.122;18.972;2023-03-18T05:59:13;98698.84;;;2.88;45.43
41040;BME280;48586;50.122;18.972;2023-03-18T06:01:27;98701.22;;;2.98;45.14
41040;BME280;48586;50.122;18.972;2023-03-18T06:03:33;98711.31;;;3.09;45.04
41040;BME280;48586;50.122;18.972;2023-03-18T06:05:38;98707.84;;;3.17;44.87
41040;BME280;48586;50.122;18.972;2023-03-18T06:07:44;98711.22;;;3.26;44.45
41040;BME280;48586;50.122;18.972;2023-03-18T06:09:49;98712.94;;;3.33;44.49
41040;BME280;48586;50.122;18.972;2023-03-18T06:11:53;98716.66;;;3.39;44.61
41040;BME280;48586;50.122;18.972;2023-03-18T06:13:58;98722.00;;;3.45;44.31
41040;BME280;48586;50.122;18.972;2023-03-18T06:16:04;98718.84;;;3.50;44.29
41040;BME280;48586;50.122;18.972;2023-03-18T06:18:12;98710.22;;;3.56;43.97
41040;BME280;48586;50.122;18.972;2023-03-18T06:20:18;98711.16;;;3.63;43.99
41040;BME280;48586;50.122;18.972;2023-03-18T06:22:24;98709.41;;;3.70;43.95
41040;BME280;48586;50.122;18.972;2023-03-18T06:24:28;98705.84;;;3.78;43.54
41040;BME280;48586;50.122;18.972;2023-03-18T06:26:33;98711.03;;;3.86;43.34
41040;BME280;48586;50.122;18.972;2023-03-18T06:28:40;98704.84;;;3.94;43.33
41040;BME280;48586;50.122;18.972;2023-03-18T06:30:46;98709.16;;;4.02;43.23
41040;BME280;48586;50.122;18.972;2023-03-18T06:32:50;98708.25;;;4.09;43.19
41040;BME280;48586;50.122;18.972;2023-03-18T06:35:02;98709.53;;;4.13;42.97
41040;BME280;48586;50.122;18.972;2023-03-18T06:37:07;98715.31;;;4.23;42.77
41040;BME280;48586;50.122;18.972;2023-03-18T06:39:12;98708.09;;;4.32;42.73
41040;BME280;48586;50.122;18.972;2023-03-18T06:41:18;98707.97;;;4.40;42.92
41040;BME280;48586;50.122;18.972;2023-03-18T06:43:34;98717.59;;;4.48;42.52
41040;BME280;48586;50.122;18.972;2023-03-18T06:45:40;98716.47;;;4.57;42.34
41040;BME280;48586;50.122;18.972;2023-03-18T06:47:45;98712.91;;;4.65;42.13
41040;BME280;48586;50.122;18.972;2023-03-18T06:49:50;98725.78;;;4.74;41.97
41040;BME280;48586;50.122;18.972;2023-03-18T06:52:03;98732.56;;;4.84;41.74
41040;BME280;48586;50.122;18.972;2023-03-18T06:54:09;98729.97;;;4.90;41.92
41040;BME280;48586;50.122;18.972;2023-03-18T06:56:15;98728.03;;;4.99;41.59
41040;BME280;48586;50.122;18.972;2023-03-18T06:58:38;98740.28;;;5.07;41.46
41040;BME280;48586;50.122;18.972;2023-03-18T07:00:44;98734.03;;;5.14;41.54
41040;BME280;48586;50.122;18.972;2023-03-18T07:02:55;98733.88;;;5.22;40.97
41040;BME280;48586;50.122;18.972;2023-03-18T07:05:01;98743.06;;;5.27;41.08
41040;BME280;48586;50.122;18.972;2023-03-18T07:07:11;98744.31;;;5.31;41.12
41040;BME280;48586;50.122;18.972;2023-03-18T07:09:16;98744.97;;;5.39;41.31
41040;BME280;48586;50.122;18.972;2023-03-18T07:11:26;98746.22;;;5.43;40.38
41040;BME280;48586;50.122;18.972;2023-03-18T07:13:32;98744.66;;;5.49;40.59
41040;BME280;48586;50.122;18.972;2023-03-18T07:15:40;98746.34;;;5.57;40.56
41040;BME280;48586;50.122;18.972;2023-03-18T07:17:44;98746.19;;;5.65;40.84
41040;BME280;48586;50.122;18.972;2023-03-18T07:19:49;98747.69;;;5.74;40.53
41040;BME280;48586;50.122;18.972;2023-03-18T07:21:53;98751.63;;;5.85;40.52
41040;BME280;48586;50.122;18.972;2023-03-18T07:24:01;98748.81;;;5.99;40.21
41040;BME280;48586;50.122;18.972;2023-03-18T07:26:07;98746.25;;;6.13;39.70
41040;BME280;48586;50.122;18.972;2023-03-18T07:28:12;98746.09;;;6.28;39.43
41040;BME280;48586;50.122;18.972;2023-03-18T07:30:17;98754.91;;;6.41;39.12
41040;BME280;48586;50.122;18.972;2023-03-18T07:32:22;98755.53;;;6.50;39.58
41040;BME280;48586;50.122;18.972;2023-03-18T07:34:26;98749.84;;;6.60;39.33
41040;BME280;48586;50.122;18.972;2023-03-18T07:36:31;98744.97;;;6.63;38.96
41040;BME280;48586;50.122;18.972;2023-03-18T07:38:37;98749.28;;;6.78;39.16
41040;BME280;48586;50.122;18.972;2023-03-18T07:40:44;98746.63;;;6.91;38.84
41040;BME280;48586;50.122;18.972;2023-03-18T07:42:48;98746.88;;;7.03;38.54
41040;BME280;48586;50.122;18.972;2023-03-18T07:44:54;98745.03;;;7.16;37.86
41040;BME280;48586;50.122;18.972;2023-03-18T07:46:58;98747.88;;;7.28;37.97
41040;BME280;48586;50.122;18.972;2023-03-18T07:49:03;98750.31;;;7.43;37.80
41040;BME280;48586;50.122;18.972;2023-03-18T07:51:09;98742.19;;;7.58;37.05
41040;BME280;48586;50.122;18.972;2023-03-18T07:53:15;98743.59;;;7.67;37.39
41040;BME280;48586;50.122;18.972;2023-03-18T07:55:21;98745.81;;;7.77;37.26
41040;BME280;48586;50.122;18.972;2023-03-18T07:57:29;98744.94;;;7.89;36.65
41040;BME280;48586;50.122;18.972;2023-03-18T07:59:35;98746.16;;;8.00;36.74
41040;BME280;48586;50.122;18.972;2023-03-18T08:01:40;98734.88;;;8.11;36.65
41040;BME280;48586;50.122;18.972;2023-03-18T08:03:47;98740.34;;;8.23;36.15
41040;BME280;48586;50.122;18.972;2023-03-18T08:05:51;98743.75;;;8.37;35.36
41040;BME280;48586;50.122;18.972;2023-03-18T08:07:57;98738.81;;;8.47;35.56
41040;BME280;48586;50.122;18.972;2023-03-18T08:10:04;98740.94;;;8.63;35.44
41040;BME280;48586;50.122;18.972;2023-03-18T08:12:11;98742.13;;;8.74;35.39
41040;BME280;48586;50.122;18.972;2023-03-18T08:14:19;98742.84;;;8.88;35.54
41040;BME280;48586;50.122;18.972;2023-03-18T08:16:25;98736.84;;;8.99;34.77
41040;BME280;48586;50.122;18.972;2023-03-18T08:18:32;98738.81;;;9.10;34.53
41040;BME280;48586;50.122;18.972;2023-03-18T08:20:37;98734.81;;;9.26;34.42
41040;BME280;48586;50.122;18.972;2023-03-18T08:22:42;98742.06;;;9.37;34.53
41040;BME280;48586;50.122;18.972;2023-03-18T08:24:47;98732.72;;;9.53;34.65
41040;BME280;48586;50.122;18.972;2023-03-18T08:26:52;98735.84;;;9.68;34.29
41040;BME280;48586;50.122;18.972;2023-03-18T08:28:58;98741.19;;;9.87;33.46
41040;BME280;48586;50.122;18.972;2023-03-18T08:31:06;98737.13;;;10.03;31.85
41040;BME280;48586;50.122;18.972;2023-03-18T08:33:10;98738.22;;;10.13;31.76
41040;BME280;48586;50.122;18.972;2023-03-18T08:35:16;98728.50;;;10.19;31.16
41040;BME280;48586;50.122;18.972;2023-03-18T08:37:21;98727.41;;;10.26;30.80
41040;BME280;48586;50.122;18.972;2023-03-18T08:39:26;98730.31;;;10.37;30.74
41040;BME280;48586;50.122;18.972;2023-03-18T08:41:31;98734.47;;;10.51;29.66
41040;BME280;48586;50.122;18.972;2023-03-18T08:43:36;98731.41;;;10.66;29.00
41040;BME280;48586;50.122;18.972;2023-03-18T08:45:41;98729.09;;;10.69;29.03
41040;BME280;48586;50.122;18.972;2023-03-18T08:47:49;98732.13;;;10.73;28.94
41040;BME280;48586;50.122;18.972;2023-03-18T08:49:56;98728.00;;;10.89;28.97
41040;BME280;48586;50.122;18.972;2023-03-18T08:52:00;98733.25;;;11.07;29.01
41040;BME280;48586;50.122;18.972;2023-03-18T08:54:06;98733.16;;;11.25;29.29
41040;BME280;48586;50.122;18.972;2023-03-18T08:56:11;98724.22;;;11.43;28.78
41040;BME280;48586;50.122;18.972;2023-03-18T08:58:16;98723.41;;;11.55;28.73
41040;BME280;48586;50.122;18.972;2023-03-18T09:00:21;98726.69;;;11.68;28.53
41040;BME280;48586;50.122;18.972;2023-03-18T09:02:26;98724.22;;;11.79;28.29
41040;BME280;48586;50.122;18.972;2023-03-18T09:04:34;98722.13;;;11.92;29.03
41040;BME280;48586;50.122;18.972;2023-03-18T09:06:40;98724.84;;;12.09;29.09
41040;BME280;48586;50.122;18.972;2023-03-18T09:08:45;98718.78;;;12.25;28.87
41040;BME280;48586;50.122;18.972;2023-03-18T09:10:52;98715.34;;;12.42;28.99
41040;BME280;48586;50.122;18.972;2023-03-18T09:12:57;98706.72;;;12.51;28.44
41040;BME280;48586;50.122;18.972;2023-03-18T09:15:02;98706.31;;;12.60;28.46
41040;BME280;48586;50.122;18.972;2023-03-18T09:17:07;98706.75;;;12.68;27.24
41040;BME280;48586;50.122;18.972;2023-03-18T09:19:13;98707.47;;;12.64;26.00
41040;BME280;48586;50.122;18.972;2023-03-18T09:21:20;98703.09;;;12.58;26.27
41040;BME280;48586;50.122;18.972;2023-03-18T09:23:25;98698.38;;;12.65;26.61
41040;BME280;48586;50.122;18.972;2023-03-18T09:25:31;98698.34;;;12.76;26.80
41040;BME280;48586;50.122;18.972;2023-03-18T09:27:36;98693.75;;;12.89;26.90
41040;BME280;48586;50.122;18.972;2023-03-18T09:29:41;98688.56;;;12.99;26.64
41040;BME280;48586;50.122;18.972;2023-03-18T09:31:46;98703.16;;;13.08;24.67
41040;BME280;48586;50.122;18.972;2023-03-18T09:33:51;98687.44;;;12.95;24.54
41040;BME280;48586;50.122;18.972;2023-03-18T09:35:57;98686.16;;;12.97;25.72
41040;BME280;48586;50.122;18.972;2023-03-18T09:38:05;98695.72;;;13.10;25.57
41040;BME280;48586;50.122;18.972;2023-03-18T09:40:18;98693.03;;;13.10;23.21
41040;BME280;48586;50.122;18.972;2023-03-18T09:42:44;98687.22;;;13.13;23.61
41040;BME280;48586;50.122;18.972;2023-03-18T09:45:00;98693.50;;;13.24;24.01
41040;BME280;48586;50.122;18.972;2023-03-18T09:47:26;98689.84;;;13.30;22.81
41040;BME280;48586;50.122;18.972;2023-03-18T09:50:14;98681.97;;;13.40;22.02
41040;BME280;48586;50.122;18.972;2023-03-18T09:52:36;98687.72;;;13.49;22.81
41040;BME280;48586;50.122;18.972;2023-03-18T09:54:55;98685.75;;;13.61;22.09
41040;BME280;48586;50.122;18.972;2023-03-18T09:57:16;98687.81;;;13.76;21.43
41040;BME280;48586;50.122;18.972;2023-03-18T09:59:31;98684.13;;;13.82;21.08
41040;BME280;48586;50.122;18.972;2023-03-18T10:01:45;98686.09;;;13.87;21.13
41040;BME280;48586;50.122;18.972;2023-03-18T10:04:00;98686.50;;;13.95;20.80
41040;BME280;48586;50.122;18.972;2023-03-18T10:06:15;98681.41;;;13.99;20.47
41040;BME280;48586;50.122;18.972;2023-03-18T10:08:44;98677.81;;;14.10;20.99
41040;BME280;48586;50.122;18.972;2023-03-18T10:11:04;98672.38;;;14.27;20.78
41040;BME280;48586;50.122;18.972;2023-03-18T10:13:24;98677.84;;;14.37;20.06
41040;BME280;48586;50.122;18.972;2023-03-18T10:15:40;98673.97;;;14.55;19.09
41040;BME280;48586;50.122;18.972;2023-03-18T10:17:52;98673.28;;;14.65;18.35
41040;BME280;48586;50.122;18.972;2023-03-18T10:20:08;98665.88;;;14.77;18.28
41040;BME280;48586;50.122;18.972;2023-03-18T10:22:45;98669.19;;;14.89;18.70
41040;BME280;48586;50.122;18.972;2023-03-18T10:25:10;98671.75;;;15.01;17.96
41040;BME280;48586;50.122;18.972;2023-03-18T10:27:40;98669.88;;;15.07;17.81
41040;BME280;48586;50.122;18.972;2023-03-18T10:30:04;98668.63;;;15.14;17.97
41040;BME280;48586;50.122;18.972;2023-03-18T10:32:34;98664.69;;;15.32;18.18
41040;BME280;48586;50.122;18.972;2023-03-18T10:34:57;98673.31;;;15.34;18.03
41040;BME280;48586;50.122;18.972;2023-03-18T10:37:19;98665.31;;;15.44;17.61
41040;BME280;48586;50.122;18.972;2023-03-18T10:39:36;98668.56;;;15.46;17.88
41040;BME280;48586;50.122;18.972;2023-03-18T10:41:48;98658.66;;;15.52;17.94
41040;BME280;48586;50.122;18.972;2023-03-18T10:43:56;98663.56;;;15.70;17.92
41040;BME280;48586;50.122;18.972;2023-03-18T10:46:13;98661.19;;;15.74;17.43
41040;BME280;48586;50.122;18.972;2023-03-18T10:48:26;98655.31;;;15.87;18.42
41040;BME280;48586;50.122;18.972;2023-03-18T10:50:36;98650.88;;;16.18;17.74
41040;BME280;48586;50.122;18.972;2023-03-18T10:52:53;98659.00;;;16.34;17.39
41040;BME280;48586;50.122;18.972;2023-03-18T10:55:02;98656.53;;;16.17;17.42
41040;BME280;48586;50.122;18.972;2023-03-18T10:57:16;98664.28;;;16.08;17.21
41040;BME280;48586;50.122;18.972;2023-03-18T10:59:27;98666.09;;;15.92;17.36
41040;BME280;48586;50.122;18.972;2023-03-18T11:01:36;98660.66;;;15.77;17.42
41040;BME280;48586;50.122;18.972;2023-03-18T11:03:47;98658.00;;;15.82;17.54
41040;BME280;48586;50.122;18.972;2023-03-18T11:06:00;98659.94;;;15.97;17.50
41040;BME280;48586;50.122;18.972;2023-03-18T11:08:28;98648.19;;;16.13;18.11
41040;BME280;48586;50.122;18.972;2023-03-18T11:10:43;98647.97;;;16.40;18.23
41040;BME280;48586;50.122;18.972;2023-03-18T11:12:49;98644.50;;;16.60;18.02
41040;BME280;48586;50.122;18.972;2023-03-18T11:15:06;98639.69;;;16.93;18.10
41040;BME280;48586;50.122;18.972;2023-03-18T11:17:21;98639.66;;;17.18;17.29